Terminal Aerodrome Forecast
Issued by NWS Sioux Falls, SD

Home | Current Version | Previous Version | Text Only | Print | Product List | Glossary On
Versions: 1 2 3 4 5 6 7 8 9 10 11 12 13 14 15
000
FTUS43 KFSD 162320
TAFFSD
TAF
KFSD 162320Z 1700/1724 16006KT P6SM SCT040
     FM170800 VRB03KT P6SM BKN030
     FM171600 06007KT P6SM SCT030=

USA.gov is the U.S. government's official web portal to all federal, state and local government web resources and services.